Terminal Aerodrome Forecast
Issued by NWS Huntsville, AL

Home | Current Version | Previous Version | Text Only | Print | Product List | Glossary On
Versions: 1 2 3 4 5 6 7 8 9 10 11 12 13 14 15 16 17 18 19 20 21 22 23 24 25 26 27 28 29 30 31 32 33 34 35 36 37 38 39 40
000
FTUS44 KHUN 022339
TAFMSL
TAF
KMSL 022339Z 0300/0324 34005KT P6SM FEW030 OVC060
     FM030300 02003KT P6SM BKN025 OVC040
      TEMPO 0308/0312 3SM BR BKN008
     FM031300 05004KT P6SM BKN025
     FM031600 02004KT P6SM SCT040=

USA.gov is the U.S. government's official web portal to all federal, state and local government web resources and services.